sensor_id;sensor_type;location;lat;lon;timestamp;P1;durP1;ratioP1;P2;durP2;ratioP2
14734;SDS011;7458;49.002;8.472;2023-03-01T00:01:16;16.30;;;12.43;;
14734;SDS011;7458;49.002;8.472;2023-03-01T00:03:45;20.63;;;12.70;;
14734;SDS011;7458;49.002;8.472;2023-03-01T00:06:11;19.33;;;13.40;;
14734;SDS011;7458;49.002;8.472;2023-03-01T00:08:37;19.08;;;15.65;;
14734;SDS011;7458;49.002;8.472;2023-03-01T00:11:10;22.70;;;13.57;;
14734;SDS011;7458;49.002;8.472;2023-03-01T00:13:42;21.33;;;15.45;;
14734;SDS011;7458;49.002;8.472;2023-03-01T00:16:11;21.23;;;15.75;;
14734;SDS011;7458;49.002;8.472;2023-03-01T00:18:46;16.42;;;12.25;;
14734;SDS011;7458;49.002;8.472;2023-03-01T00:21:12;27.65;;;16.15;;
14734;SDS011;7458;49.002;8.472;2023-03-01T00:23:38;14.95;;;11.45;;
14734;SDS011;7458;49.002;8.472;2023-03-01T00:26:10;16.33;;;14.25;;
14734;SDS011;7458;49.002;8.472;2023-03-01T00:28:38;18.63;;;13.18;;
14734;SDS011;7458;49.002;8.472;2023-03-01T00:31:05;21.25;;;11.38;;
14734;SDS011;7458;49.002;8.472;2023-03-01T00:33:40;16.48;;;13.93;;
14734;SDS011;7458;49.002;8.472;2023-03-01T00:36:09;20.17;;;14.05;;
14734;SDS011;7458;49.002;8.472;2023-03-01T00:38:39;18.88;;;16.73;;
14734;SDS011;7458;49.002;8.472;2023-03-01T00:41:12;20.42;;;13.70;;
14734;SDS011;7458;49.002;8.472;2023-03-01T00:43:40;18.45;;;11.68;;
14734;SDS011;7458;49.002;8.472;2023-03-01T00:46:08;21.75;;;15.65;;
14734;SDS011;7458;49.002;8.472;2023-03-01T00:48:39;18.58;;;15.45;;
14734;SDS011;7458;49.002;8.472;2023-03-01T00:53:44;22.13;;;13.55;;
14734;SDS011;7458;49.002;8.472;2023-03-01T00:56:12;21.38;;;14.82;;
14734;SDS011;7458;49.002;8.472;2023-03-01T00:58:41;21.40;;;13.30;;
14734;SDS011;7458;49.002;8.472;2023-03-01T01:01:11;19.02;;;12.43;;
14734;SDS011;7458;49.002;8.472;2023-03-01T01:06:21;17.70;;;14.43;;
14734;SDS011;7458;49.002;8.472;2023-03-01T01:08:51;17.80;;;12.05;;
14734;SDS011;7458;49.002;8.472;2023-03-01T01:11:19;17.63;;;14.20;;
14734;SDS011;7458;49.002;8.472;2023-03-01T01:13:48;20.88;;;12.48;;
14734;SDS011;7458;49.002;8.472;2023-03-01T01:16:15;19.42;;;13.70;;
14734;SDS011;7458;49.002;8.472;2023-03-01T01:18:44;19.13;;;13.25;;
14734;SDS011;7458;49.002;8.472;2023-03-01T01:21:11;18.55;;;13.98;;
14734;SDS011;7458;49.002;8.472;2023-03-01T01:23:44;16.00;;;14.15;;
14734;SDS011;7458;49.002;8.472;2023-03-01T01:26:12;18.60;;;13.52;;
14734;SDS011;7458;49.002;8.472;2023-03-01T01:28:42;18.65;;;15.82;;
14734;SDS011;7458;49.002;8.472;2023-03-01T01:31:08;19.00;;;13.10;;
14734;SDS011;7458;49.002;8.472;2023-03-01T01:33:34;23.23;;;13.82;;
14734;SDS011;7458;49.002;8.472;2023-03-01T01:36:00;16.98;;;12.93;;
14734;SDS011;7458;49.002;8.472;2023-03-01T01:38:26;22.38;;;13.77;;
14734;SDS011;7458;49.002;8.472;2023-03-01T01:40:52;16.95;;;13.13;;
14734;SDS011;7458;49.002;8.472;2023-03-01T01:43:20;23.85;;;13.10;;
14734;SDS011;7458;49.002;8.472;2023-03-01T01:45:52;16.75;;;13.02;;
14734;SDS011;7458;49.002;8.472;2023-03-01T01:48:26;19.00;;;13.73;;
14734;SDS011;7458;49.002;8.472;2023-03-01T01:51:05;23.23;;;13.70;;
14734;SDS011;7458;49.002;8.472;2023-03-01T01:53:37;19.23;;;12.90;;
14734;SDS011;7458;49.002;8.472;2023-03-01T01:56:05;19.40;;;15.15;;
14734;SDS011;7458;49.002;8.472;2023-03-01T01:58:34;18.73;;;14.27;;
14734;SDS011;7458;49.002;8.472;2023-03-01T02:01:02;28.60;;;14.23;;
14734;SDS011;7458;49.002;8.472;2023-03-01T02:03:30;20.45;;;13.75;;
14734;SDS011;7458;49.002;8.472;2023-03-01T02:09:11;21.00;;;14.27;;
14734;SDS011;7458;49.002;8.472;2023-03-01T02:11:40;21.35;;;14.43;;
14734;SDS011;7458;49.002;8.472;2023-03-01T02:14:08;17.85;;;13.77;;
14734;SDS011;7458;49.002;8.472;2023-03-01T02:16:34;23.13;;;12.80;;
14734;SDS011;7458;49.002;8.472;2023-03-01T02:19:00;22.60;;;16.15;;
14734;SDS011;7458;49.002;8.472;2023-03-01T02:21:37;25.33;;;14.60;;
14734;SDS011;7458;49.002;8.472;2023-03-01T02:27:22;22.13;;;14.32;;
14734;SDS011;7458;49.002;8.472;2023-03-01T02:30:01;18.75;;;14.43;;
14734;SDS011;7458;49.002;8.472;2023-03-01T02:32:28;21.05;;;15.68;;
14734;SDS011;7458;49.002;8.472;2023-03-01T02:34:54;22.73;;;15.73;;
14734;SDS011;7458;49.002;8.472;2023-03-01T02:37:21;20.85;;;17.88;;
14734;SDS011;7458;49.002;8.472;2023-03-01T02:39:51;23.75;;;14.20;;
14734;SDS011;7458;49.002;8.472;2023-03-01T02:42:30;25.15;;;15.00;;
14734;SDS011;7458;49.002;8.472;2023-03-01T02:45:04;19.30;;;14.65;;
14734;SDS011;7458;49.002;8.472;2023-03-01T02:47:30;22.17;;;16.58;;
14734;SDS011;7458;49.002;8.472;2023-03-01T02:49:56;20.45;;;15.23;;
14734;SDS011;7458;49.002;8.472;2023-03-01T02:57:21;19.75;;;14.00;;
14734;SDS011;7458;49.002;8.472;2023-03-01T02:59:49;19.35;;;14.20;;
14734;SDS011;7458;49.002;8.472;2023-03-01T03:02:22;14.70;;;11.48;;
14734;SDS011;7458;49.002;8.472;2023-03-01T03:05:11;24.42;;;14.27;;
14734;SDS011;7458;49.002;8.472;2023-03-01T03:10:09;20.60;;;14.13;;
14734;SDS011;7458;49.002;8.472;2023-03-01T03:12:40;19.73;;;13.55;;
14734;SDS011;7458;49.002;8.472;2023-03-01T03:15:06;27.50;;;15.30;;
14734;SDS011;7458;49.002;8.472;2023-03-01T03:17:38;20.10;;;15.32;;
14734;SDS011;7458;49.002;8.472;2023-03-01T03:20:06;19.33;;;14.13;;
14734;SDS011;7458;49.002;8.472;2023-03-01T03:22:37;20.60;;;15.50;;
14734;SDS011;7458;49.002;8.472;2023-03-01T03:25:04;30.65;;;17.40;;
14734;SDS011;7458;49.002;8.472;2023-03-01T03:27:35;25.73;;;16.27;;
14734;SDS011;7458;49.002;8.472;2023-03-01T03:30:04;28.50;;;17.08;;
14734;SDS011;7458;49.002;8.472;2023-03-01T03:32:35;21.08;;;15.82;;
14734;SDS011;7458;49.002;8.472;2023-03-01T03:35:02;20.63;;;16.23;;
14734;SDS011;7458;49.002;8.472;2023-03-01T03:37:37;23.48;;;16.75;;
14734;SDS011;7458;49.002;8.472;2023-03-01T03:40:23;21.65;;;16.95;;
14734;SDS011;7458;49.002;8.472;2023-03-01T03:42:52;25.10;;;17.15;;
14734;SDS011;7458;49.002;8.472;2023-03-01T03:45:17;21.50;;;17.38;;
14734;SDS011;7458;49.002;8.472;2023-03-01T03:47:44;22.35;;;15.45;;
14734;SDS011;7458;49.002;8.472;2023-03-01T03:50:13;21.25;;;15.32;;
14734;SDS011;7458;49.002;8.472;2023-03-01T03:52:42;23.40;;;16.33;;
14734;SDS011;7458;49.002;8.472;2023-03-01T03:55:09;21.20;;;16.15;;
14734;SDS011;7458;49.002;8.472;2023-03-01T03:57:37;24.10;;;17.25;;
14734;SDS011;7458;49.002;8.472;2023-03-01T04:00:05;22.58;;;17.65;;
14734;SDS011;7458;49.002;8.472;2023-03-01T04:02:39;27.48;;;18.42;;
14734;SDS011;7458;49.002;8.472;2023-03-01T04:05:09;23.67;;;15.73;;
14734;SDS011;7458;49.002;8.472;2023-03-01T04:07:37;23.42;;;15.75;;
14734;SDS011;7458;49.002;8.472;2023-03-01T04:10:04;20.73;;;15.35;;
14734;SDS011;7458;49.002;8.472;2023-03-01T04:12:33;19.48;;;14.30;;
14734;SDS011;7458;49.002;8.472;2023-03-01T04:15:00;24.25;;;17.15;;
14734;SDS011;7458;49.002;8.472;2023-03-01T04:17:28;40.95;;;18.30;;
14734;SDS011;7458;49.002;8.472;2023-03-01T04:19:54;26.98;;;19.92;;
14734;SDS011;7458;49.002;8.472;2023-03-01T04:22:19;21.50;;;14.00;;
14734;SDS011;7458;49.002;8.472;2023-03-01T04:24:45;20.55;;;17.80;;
14734;SDS011;7458;49.002;8.472;2023-03-01T04:27:11;23.70;;;17.85;;
14734;SDS011;7458;49.002;8.472;2023-03-01T04:29:36;23.30;;;16.52;;
14734;SDS011;7458;49.002;8.472;2023-03-01T04:32:02;23.35;;;16.75;;
14734;SDS011;7458;49.002;8.472;2023-03-01T04:34:28;28.52;;;18.23;;
14734;SDS011;7458;49.002;8.472;2023-03-01T04:36:55;26.90;;;18.83;;
14734;SDS011;7458;49.002;8.472;2023-03-01T04:39:20;24.40;;;16.60;;
14734;SDS011;7458;49.002;8.472;2023-03-01T04:41:46;24.27;;;17.23;;
14734;SDS011;7458;49.002;8.472;2023-03-01T04:44:12;24.85;;;16.73;;
14734;SDS011;7458;49.002;8.472;2023-03-01T04:46:38;23.38;;;14.45;;
14734;SDS011;7458;49.002;8.472;2023-03-01T04:49:04;26.90;;;16.67;;
14734;SDS011;7458;49.002;8.472;2023-03-01T04:51:30;24.75;;;17.63;;
14734;SDS011;7458;49.002;8.472;2023-03-01T04:53:59;22.08;;;15.90;;
14734;SDS011;7458;49.002;8.472;2023-03-01T04:56:25;25.95;;;19.38;;
14734;SDS011;7458;49.002;8.472;2023-03-01T04:58:52;21.60;;;15.77;;
14734;SDS011;7458;49.002;8.472;2023-03-01T05:01:19;21.10;;;17.05;;
14734;SDS011;7458;49.002;8.472;2023-03-01T05:03:49;27.20;;;17.40;;
14734;SDS011;7458;49.002;8.472;2023-03-01T05:06:16;28.10;;;17.50;;
14734;SDS011;7458;49.002;8.472;2023-03-01T05:08:44;33.97;;;17.23;;
14734;SDS011;7458;49.002;8.472;2023-03-01T05:11:10;22.23;;;14.68;;
14734;SDS011;7458;49.002;8.472;2023-03-01T05:13:36;23.10;;;17.98;;
14734;SDS011;7458;49.002;8.472;2023-03-01T05:16:04;25.25;;;19.17;;
14734;SDS011;7458;49.002;8.472;2023-03-01T05:18:32;22.27;;;19.48;;
14734;SDS011;7458;49.002;8.472;2023-03-01T05:21:03;25.92;;;15.73;;
14734;SDS011;7458;49.002;8.472;2023-03-01T05:23:35;22.02;;;15.48;;
14734;SDS011;7458;49.002;8.472;2023-03-01T05:26:02;23.23;;;16.85;;
14734;SDS011;7458;49.002;8.472;2023-03-01T05:28:31;28.40;;;18.85;;
14734;SDS011;7458;49.002;8.472;2023-03-01T05:30:57;24.98;;;17.45;;
14734;SDS011;7458;49.002;8.472;2023-03-01T05:33:24;28.67;;;17.42;;
14734;SDS011;7458;49.002;8.472;2023-03-01T05:35:51;29.67;;;18.98;;
14734;SDS011;7458;49.002;8.472;2023-03-01T05:38:18;30.25;;;18.95;;
14734;SDS011;7458;49.002;8.472;2023-03-01T05:40:46;27.35;;;19.38;;
14734;SDS011;7458;49.002;8.472;2023-03-01T05:43:14;28.65;;;16.17;;
14734;SDS011;7458;49.002;8.472;2023-03-01T05:45:42;23.65;;;17.67;;
14734;SDS011;7458;49.002;8.472;2023-03-01T05:48:09;21.67;;;16.88;;
14734;SDS011;7458;49.002;8.472;2023-03-01T05:50:38;24.80;;;16.38;;
14734;SDS011;7458;49.002;8.472;2023-03-01T05:53:09;22.50;;;16.90;;
14734;SDS011;7458;49.002;8.472;2023-03-01T05:55:41;34.17;;;18.45;;
14734;SDS011;7458;49.002;8.472;2023-03-01T05:58:11;21.98;;;18.25;;
14734;SDS011;7458;49.002;8.472;2023-03-01T06:00:41;29.40;;;19.90;;
14734;SDS011;7458;49.002;8.472;2023-03-01T06:03:09;23.20;;;18.80;;
14734;SDS011;7458;49.002;8.472;2023-03-01T06:05:38;24.98;;;19.65;;
14734;SDS011;7458;49.002;8.472;2023-03-01T06:08:05;28.23;;;19.00;;
14734;SDS011;7458;49.002;8.472;2023-03-01T06:10:31;24.50;;;16.77;;
14734;SDS011;7458;49.002;8.472;2023-03-01T06:12:57;30.58;;;18.92;;
14734;SDS011;7458;49.002;8.472;2023-03-01T06:15:23;25.20;;;16.95;;
14734;SDS011;7458;49.002;8.472;2023-03-01T06:17:50;27.30;;;18.40;;
14734;SDS011;7458;49.002;8.472;2023-03-01T06:20:21;28.27;;;19.05;;
14734;SDS011;7458;49.002;8.472;2023-03-01T06:22:49;26.17;;;19.40;;
14734;SDS011;7458;49.002;8.472;2023-03-01T06:25:20;22.38;;;15.65;;
14734;SDS011;7458;49.002;8.472;2023-03-01T06:27:48;22.52;;;16.13;;
14734;SDS011;7458;49.002;8.472;2023-03-01T06:30:15;25.98;;;17.50;;
14734;SDS011;7458;49.002;8.472;2023-03-01T06:32:43;24.80;;;18.05;;
14734;SDS011;7458;49.002;8.472;2023-03-01T06:35:10;27.83;;;17.42;;
14734;SDS011;7458;49.002;8.472;2023-03-01T06:37:47;30.80;;;18.58;;
14734;SDS011;7458;49.002;8.472;2023-03-01T06:40:13;28.90;;;18.95;;
14734;SDS011;7458;49.002;8.472;2023-03-01T06:42:41;24.33;;;19.52;;
14734;SDS011;7458;49.002;8.472;2023-03-01T06:45:12;24.90;;;17.92;;
14734;SDS011;7458;49.002;8.472;2023-03-01T06:47:37;27.52;;;19.10;;
14734;SDS011;7458;49.002;8.472;2023-03-01T06:50:04;26.92;;;19.42;;
14734;SDS011;7458;49.002;8.472;2023-03-01T06:52:30;24.60;;;17.30;;
14734;SDS011;7458;49.002;8.472;2023-03-01T06:54:56;30.30;;;21.98;;
14734;SDS011;7458;49.002;8.472;2023-03-01T06:57:22;27.45;;;20.38;;
14734;SDS011;7458;49.002;8.472;2023-03-01T06:59:48;26.02;;;18.15;;
14734;SDS011;7458;49.002;8.472;2023-03-01T07:02:13;29.35;;;21.27;;
14734;SDS011;7458;49.002;8.472;2023-03-01T07:04:40;33.70;;;23.08;;
14734;SDS011;7458;49.002;8.472;2023-03-01T07:07:07;31.80;;;23.33;;
14734;SDS011;7458;49.002;8.472;2023-03-01T07:09:33;27.08;;;19.88;;
14734;SDS011;7458;49.002;8.472;2023-03-01T07:11:59;26.08;;;22.25;;
14734;SDS011;7458;49.002;8.472;2023-03-01T07:14:26;29.90;;;23.05;;
14734;SDS011;7458;49.002;8.472;2023-03-01T07:16:52;29.40;;;20.58;;
14734;SDS011;7458;49.002;8.472;2023-03-01T07:19:19;26.45;;;21.30;;
14734;SDS011;7458;49.002;8.472;2023-03-01T07:21:45;29.58;;;21.95;;
14734;SDS011;7458;49.002;8.472;2023-03-01T07:24:11;22.95;;;19.55;;
14734;SDS011;7458;49.002;8.472;2023-03-01T07:26:37;28.88;;;23.08;;
14734;SDS011;7458;49.002;8.472;2023-03-01T07:29:03;24.02;;;19.85;;
14734;SDS011;7458;49.002;8.472;2023-03-01T07:31:32;27.48;;;21.00;;
14734;SDS011;7458;49.002;8.472;2023-03-01T07:33:58;29.60;;;21.38;;
14734;SDS011;7458;49.002;8.472;2023-03-01T07:36:27;31.23;;;23.10;;
14734;SDS011;7458;49.002;8.472;2023-03-01T07:38:53;27.77;;;20.95;;
14734;SDS011;7458;49.002;8.472;2023-03-01T07:41:20;26.77;;;20.90;;
14734;SDS011;7458;49.002;8.472;2023-03-01T07:43:46;28.40;;;19.75;;
14734;SDS011;7458;49.002;8.472;2023-03-01T07:46:12;30.63;;;22.90;;
14734;SDS011;7458;49.002;8.472;2023-03-01T07:48:38;25.40;;;20.33;;
14734;SDS011;7458;49.002;8.472;2023-03-01T07:51:04;27.40;;;20.88;;
14734;SDS011;7458;49.002;8.472;2023-03-01T07:53:31;25.02;;;20.58;;
14734;SDS011;7458;49.002;8.472;2023-03-01T07:56:02;25.38;;;21.67;;
14734;SDS011;7458;49.002;8.472;2023-03-01T07:58:30;25.30;;;21.35;;
14734;SDS011;7458;49.002;8.472;2023-03-01T08:01:01;25.88;;;21.90;;
14734;SDS011;7458;49.002;8.472;2023-03-01T08:03:31;30.45;;;22.42;;
14734;SDS011;7458;49.002;8.472;2023-03-01T08:06:02;29.40;;;20.35;;
14734;SDS011;7458;49.002;8.472;2023-03-01T08:08:31;29.58;;;20.50;;
14734;SDS011;7458;49.002;8.472;2023-03-01T08:10:58;23.02;;;18.95;;
14734;SDS011;7458;49.002;8.472;2023-03-01T08:13:26;25.80;;;22.52;;
14734;SDS011;7458;49.002;8.472;2023-03-01T08:15:51;26.02;;;21.42;;
14734;SDS011;7458;49.002;8.472;2023-03-01T08:18:18;29.38;;;21.77;;
14734;SDS011;7458;49.002;8.472;2023-03-01T08:20:45;27.70;;;20.98;;
14734;SDS011;7458;49.002;8.472;2023-03-01T08:23:12;29.08;;;20.23;;
14734;SDS011;7458;49.002;8.472;2023-03-01T08:25:38;29.95;;;24.90;;
14734;SDS011;7458;49.002;8.472;2023-03-01T08:28:04;25.88;;;21.58;;
14734;SDS011;7458;49.002;8.472;2023-03-01T08:30:31;34.78;;;22.17;;
14734;SDS011;7458;49.002;8.472;2023-03-01T08:32:57;29.98;;;22.52;;
14734;SDS011;7458;49.002;8.472;2023-03-01T08:35:23;27.58;;;23.83;;
14734;SDS011;7458;49.002;8.472;2023-03-01T08:37:48;27.55;;;22.77;;
14734;SDS011;7458;49.002;8.472;2023-03-01T08:40:14;29.77;;;22.08;;
14734;SDS011;7458;49.002;8.472;2023-03-01T08:42:40;28.67;;;23.52;;
14734;SDS011;7458;49.002;8.472;2023-03-01T08:45:10;31.95;;;23.00;;
14734;SDS011;7458;49.002;8.472;2023-03-01T08:47:39;30.42;;;21.10;;
14734;SDS011;7458;49.002;8.472;2023-03-01T08:50:05;29.45;;;22.48;;
14734;SDS011;7458;49.002;8.472;2023-03-01T08:52:31;34.03;;;24.33;;
14734;SDS011;7458;49.002;8.472;2023-03-01T08:54:59;27.30;;;22.25;;
14734;SDS011;7458;49.002;8.472;2023-03-01T08:57:26;30.00;;;22.42;;
14734;SDS011;7458;49.002;8.472;2023-03-01T08:59:52;28.40;;;21.67;;
14734;SDS011;7458;49.002;8.472;2023-03-01T09:02:17;23.65;;;17.70;;
14734;SDS011;7458;49.002;8.472;2023-03-01T09:04:43;25.45;;;21.55;;
14734;SDS011;7458;49.002;8.472;2023-03-01T09:07:10;25.80;;;19.80;;
14734;SDS011;7458;49.002;8.472;2023-03-01T09:09:36;28.13;;;22.40;;
14734;SDS011;7458;49.002;8.472;2023-03-01T09:12:02;29.23;;;22.67;;
14734;SDS011;7458;49.002;8.472;2023-03-01T09:14:29;25.90;;;21.13;;
14734;SDS011;7458;49.002;8.472;2023-03-01T09:16:55;32.42;;;22.98;;
14734;SDS011;7458;49.002;8.472;2023-03-01T09:19:21;30.45;;;22.73;;
14734;SDS011;7458;49.002;8.472;2023-03-01T09:21:46;28.48;;;23.45;;
14734;SDS011;7458;49.002;8.472;2023-03-01T09:24:19;26.20;;;22.25;;
14734;SDS011;7458;49.002;8.472;2023-03-01T09:26:47;32.55;;;23.70;;
14734;SDS011;7458;49.002;8.472;2023-03-01T09:29:14;26.90;;;23.10;;
14734;SDS011;7458;49.002;8.472;2023-03-01T09:31:41;30.45;;;24.15;;
14734;SDS011;7458;49.002;8.472;2023-03-01T09:34:08;28.23;;;23.15;;
14734;SDS011;7458;49.002;8.472;2023-03-01T09:36:34;32.40;;;24.02;;
14734;SDS011;7458;49.002;8.472;2023-03-01T09:39:01;32.22;;;26.10;;
14734;SDS011;7458;49.002;8.472;2023-03-01T09:44:33;31.08;;;23.00;;
14734;SDS011;7458;49.002;8.472;2023-03-01T09:47:00;22.83;;;20.08;;
14734;SDS011;7458;49.002;8.472;2023-03-01T09:49:29;30.23;;;21.67;;
14734;SDS011;7458;49.002;8.472;2023-03-01T09:54:55;27.15;;;22.45;;
14734;SDS011;7458;49.002;8.472;2023-03-01T10:02:51;29.02;;;23.27;;
14734;SDS011;7458;49.002;8.472;2023-03-01T10:08:30;31.13;;;24.00;;
14734;SDS011;7458;49.002;8.472;2023-03-01T10:11:17;27.90;;;22.38;;
14734;SDS011;7458;49.002;8.472;2023-03-01T10:22:16;30.33;;;24.75;;
14734;SDS011;7458;49.002;8.472;2023-03-01T10:24:59;28.30;;;21.90;;
14734;SDS011;7458;49.002;8.472;2023-03-01T10:32:54;27.67;;;23.42;;
14734;SDS011;7458;49.002;8.472;2023-03-01T10:35:26;30.80;;;24.98;;
14734;SDS011;7458;49.002;8.472;2023-03-01T10:38:06;29.98;;;21.77;;
14734;SDS011;7458;49.002;8.472;2023-03-01T10:40:35;27.45;;;22.63;;
14734;SDS011;7458;49.002;8.472;2023-03-01T10:43:15;30.42;;;25.38;;
14734;SDS011;7458;49.002;8.472;2023-03-01T10:45:41;29.05;;;21.90;;
14734;SDS011;7458;49.002;8.472;2023-03-01T10:48:11;26.02;;;22.40;;
14734;SDS011;7458;49.002;8.472;2023-03-01T10:50:44;26.67;;;23.67;;
14734;SDS011;7458;49.002;8.472;2023-03-01T10:53:19;27.30;;;23.52;;
14734;SDS011;7458;49.002;8.472;2023-03-01T10:55:58;25.98;;;21.35;;
14734;SDS011;7458;49.002;8.472;2023-03-01T10:58:31;28.75;;;22.88;;
14734;SDS011;7458;49.002;8.472;2023-03-01T11:01:23;25.65;;;22.67;;
14734;SDS011;7458;49.002;8.472;2023-03-01T11:06:32;28.70;;;22.10;;
14734;SDS011;7458;49.002;8.472;2023-03-01T11:09:33;26.58;;;21.98;;
14734;SDS011;7458;49.002;8.472;2023-03-01T11:12:03;33.63;;;24.92;;
14734;SDS011;7458;49.002;8.472;2023-03-01T11:14:39;29.60;;;21.85;;
14734;SDS011;7458;49.002;8.472;2023-03-01T11:22:42;27.70;;;24.00;;
14734;SDS011;7458;49.002;8.472;2023-03-01T11:25:26;30.60;;;21.67;;
14734;SDS011;7458;49.002;8.472;2023-03-01T11:28:07;25.98;;;22.83;;
14734;SDS011;7458;49.002;8.472;2023-03-01T11:30:51;27.47;;;24.53;;
14734;SDS011;7458;49.002;8.472;2023-03-01T11:33:33;26.65;;;22.65;;
14734;SDS011;7458;49.002;8.472;2023-03-01T11:38:56;28.00;;;24.73;;
14734;SDS011;7458;49.002;8.472;2023-03-01T11:41:31;24.40;;;21.50;;
14734;SDS011;7458;49.002;8.472;2023-03-01T11:44:01;30.27;;;22.48;;
14734;SDS011;7458;49.002;8.472;2023-03-01T12:21:21;25.98;;;22.13;;
14734;SDS011;7458;49.002;8.472;2023-03-01T12:30:09;28.27;;;23.35;;
14734;SDS011;7458;49.002;8.472;2023-03-01T12:33:29;25.15;;;22.70;;
14734;SDS011;7458;49.002;8.472;2023-03-01T12:41:54;30.58;;;23.33;;
14734;SDS011;7458;49.002;8.472;2023-03-01T12:44:47;27.60;;;23.65;;
14734;SDS011;7458;49.002;8.472;2023-03-01T12:47:49;29.98;;;23.90;;
14734;SDS011;7458;49.002;8.472;2023-03-01T12:50:21;31.38;;;23.75;;
14734;SDS011;7458;49.002;8.472;2023-03-01T12:53:07;33.80;;;23.88;;
14734;SDS011;7458;49.002;8.472;2023-03-01T12:55:58;27.88;;;20.60;;
14734;SDS011;7458;49.002;8.472;2023-03-01T13:08:05;26.88;;;22.27;;
14734;SDS011;7458;49.002;8.472;2023-03-01T13:10:56;32.22;;;25.60;;
14734;SDS011;7458;49.002;8.472;2023-03-01T13:13:28;30.88;;;24.15;;
14734;SDS011;7458;49.002;8.472;2023-03-01T13:15:56;30.40;;;22.42;;
14734;SDS011;7458;49.002;8.472;2023-03-01T13:21:08;31.65;;;25.60;;
14734;SDS011;7458;49.002;8.472;2023-03-01T13:23:35;32.63;;;22.67;;
14734;SDS011;7458;49.002;8.472;2023-03-01T13:31:55;32.92;;;26.35;;
14734;SDS011;7458;49.002;8.472;2023-03-01T13:33:57;29.02;;;21.02;;
14734;SDS011;7458;49.002;8.472;2023-03-01T13:44:24;28.17;;;22.55;;
14734;SDS011;7458;49.002;8.472;2023-03-01T13:49:35;26.95;;;21.75;;
14734;SDS011;7458;49.002;8.472;2023-03-01T13:57:43;26.38;;;20.15;;
14734;SDS011;7458;49.002;8.472;2023-03-01T14:00:30;32.33;;;24.90;;
14734;SDS011;7458;49.002;8.472;2023-03-01T14:03:02;30.60;;;24.33;;
14734;SDS011;7458;49.002;8.472;2023-03-01T14:05:37;28.60;;;20.17;;
14734;SDS011;7458;49.002;8.472;2023-03-01T14:08:05;23.70;;;18.27;;
14734;SDS011;7458;49.002;8.472;2023-03-01T14:10:49;31.55;;;26.42;;
14734;SDS011;7458;49.002;8.472;2023-03-01T14:13:45;28.65;;;22.00;;
14734;SDS011;7458;49.002;8.472;2023-03-01T14:19:38;34.60;;;23.45;;
14734;SDS011;7458;49.002;8.472;2023-03-01T14:25:06;25.60;;;22.55;;
14734;SDS011;7458;49.002;8.472;2023-03-01T14:27:58;27.60;;;21.60;;
14734;SDS011;7458;49.002;8.472;2023-03-01T14:30:45;28.13;;;22.48;;
14734;SDS011;7458;49.002;8.472;2023-03-01T14:33:18;31.35;;;23.10;;
14734;SDS011;7458;49.002;8.472;2023-03-01T14:36:05;28.65;;;20.48;;
14734;SDS011;7458;49.002;8.472;2023-03-01T14:38:37;51.55;;;42.55;;
14734;SDS011;7458;49.002;8.472;2023-03-01T14:43:46;24.92;;;20.83;;
14734;SDS011;7458;49.002;8.472;2023-03-01T14:46:21;27.05;;;22.40;;
14734;SDS011;7458;49.002;8.472;2023-03-01T14:49:14;26.38;;;19.58;;
14734;SDS011;7458;49.002;8.472;2023-03-01T14:52:04;28.00;;;21.13;;
14734;SDS011;7458;49.002;8.472;2023-03-01T14:54:49;27.23;;;21.40;;
14734;SDS011;7458;49.002;8.472;2023-03-01T14:57:20;25.45;;;21.15;;
14734;SDS011;7458;49.002;8.472;2023-03-01T14:59:50;28.83;;;20.98;;
14734;SDS011;7458;49.002;8.472;2023-03-01T15:02:24;25.75;;;20.42;;
14734;SDS011;7458;49.002;8.472;2023-03-01T15:04:53;27.55;;;20.42;;
14734;SDS011;7458;49.002;8.472;2023-03-01T15:07:22;23.27;;;18.40;;
14734;SDS011;7458;49.002;8.472;2023-03-01T15:09:57;24.45;;;20.23;;
14734;SDS011;7458;49.002;8.472;2023-03-01T15:14:54;26.80;;;19.77;;
14734;SDS011;7458;49.002;8.472;2023-03-01T15:17:32;28.15;;;20.90;;
14734;SDS011;7458;49.002;8.472;2023-03-01T15:20:04;24.13;;;20.05;;
14734;SDS011;7458;49.002;8.472;2023-03-01T15:22:43;34.13;;;25.15;;
14734;SDS011;7458;49.002;8.472;2023-03-01T15:25:16;37.35;;;26.13;;
14734;SDS011;7458;49.002;8.472;2023-03-01T15:27:46;29.00;;;23.63;;
14734;SDS011;7458;49.002;8.472;2023-03-01T15:30:19;30.40;;;18.92;;
14734;SDS011;7458;49.002;8.472;2023-03-01T15:38:59;34.20;;;24.88;;
14734;SDS011;7458;49.002;8.472;2023-03-01T15:41:33;28.17;;;20.67;;
14734;SDS011;7458;49.002;8.472;2023-03-01T15:44:16;28.33;;;20.92;;
14734;SDS011;7458;49.002;8.472;2023-03-01T15:46:51;23.45;;;19.83;;
14734;SDS011;7458;49.002;8.472;2023-03-01T15:49:25;30.55;;;23.15;;
14734;SDS011;7458;49.002;8.472;2023-03-01T15:52:10;25.30;;;19.95;;
14734;SDS011;7458;49.002;8.472;2023-03-01T15:54:47;23.80;;;18.48;;
14734;SDS011;7458;49.002;8.472;2023-03-01T15:57:16;22.65;;;18.40;;
14734;SDS011;7458;49.002;8.472;2023-03-01T15:59:42;27.85;;;21.17;;
14734;SDS011;7458;49.002;8.472;2023-03-01T16:02:10;26.08;;;20.02;;
14734;SDS011;7458;49.002;8.472;2023-03-01T16:04:37;34.38;;;23.13;;
14734;SDS011;7458;49.002;8.472;2023-03-01T16:07:04;27.77;;;22.00;;
14734;SDS011;7458;49.002;8.472;2023-03-01T16:09:31;22.88;;;19.08;;
14734;SDS011;7458;49.002;8.472;2023-03-01T16:11:57;25.70;;;19.15;;
14734;SDS011;7458;49.002;8.472;2023-03-01T16:14:23;29.33;;;20.77;;
14734;SDS011;7458;49.002;8.472;2023-03-01T16:16:49;26.65;;;21.33;;
14734;SDS011;7458;49.002;8.472;2023-03-01T16:19:15;23.48;;;19.30;;
14734;SDS011;7458;49.002;8.472;2023-03-01T16:21:41;23.25;;;19.40;;
14734;SDS011;7458;49.002;8.472;2023-03-01T16:24:09;24.52;;;20.15;;
14734;SDS011;7458;49.002;8.472;2023-03-01T16:26:36;24.80;;;18.60;;
14734;SDS011;7458;49.002;8.472;2023-03-01T16:29:02;24.13;;;19.50;;
14734;SDS011;7458;49.002;8.472;2023-03-01T16:31:29;27.63;;;19.45;;
14734;SDS011;7458;49.002;8.472;2023-03-01T16:33:56;32.50;;;20.73;;
14734;SDS011;7458;49.002;8.472;2023-03-01T16:36:25;26.88;;;20.25;;
14734;SDS011;7458;49.002;8.472;2023-03-01T16:38:53;25.33;;;19.23;;
14734;SDS011;7458;49.002;8.472;2023-03-01T16:41:23;26.33;;;19.33;;
14734;SDS011;7458;49.002;8.472;2023-03-01T16:43:49;25.23;;;19.00;;
14734;SDS011;7458;49.002;8.472;2023-03-01T16:46:16;26.42;;;20.48;;
14734;SDS011;7458;49.002;8.472;2023-03-01T16:48:46;29.40;;;20.95;;
14734;SDS011;7458;49.002;8.472;2023-03-01T16:51:13;23.38;;;18.30;;
14734;SDS011;7458;49.002;8.472;2023-03-01T16:53:39;27.45;;;20.13;;
14734;SDS011;7458;49.002;8.472;2023-03-01T16:56:07;28.58;;;21.23;;
14734;SDS011;7458;49.002;8.472;2023-03-01T16:58:36;23.02;;;20.17;;
14734;SDS011;7458;49.002;8.472;2023-03-01T17:01:07;25.15;;;18.70;;
14734;SDS011;7458;49.002;8.472;2023-03-01T17:03:37;27.08;;;22.90;;
14734;SDS011;7458;49.002;8.472;2023-03-01T17:06:05;26.50;;;19.40;;
14734;SDS011;7458;49.002;8.472;2023-03-01T17:08:34;29.90;;;21.77;;
14734;SDS011;7458;49.002;8.472;2023-03-01T17:11:02;26.67;;;22.25;;
14734;SDS011;7458;49.002;8.472;2023-03-01T17:13:33;27.75;;;19.27;;
14734;SDS011;7458;49.002;8.472;2023-03-01T17:16:02;29.67;;;20.52;;
14734;SDS011;7458;49.002;8.472;2023-03-01T17:18:30;29.42;;;21.95;;
14734;SDS011;7458;49.002;8.472;2023-03-01T17:20:56;34.10;;;20.17;;
14734;SDS011;7458;49.002;8.472;2023-03-01T17:23:22;28.00;;;20.35;;
14734;SDS011;7458;49.002;8.472;2023-03-01T17:25:48;25.70;;;20.23;;
14734;SDS011;7458;49.002;8.472;2023-03-01T17:28:14;28.08;;;19.60;;